Time;durP1;ratioP1;P1;durP2;ratioP2;P2;SDS_P1;SDS_P2;PMS_P1;PMS_P2;Temp;Humidity;BMP_temperature;BMP_pressure;BME280_temperature;BME280_humidity;BME280_pressure;Samples;Min_cycle;Max_cycle;Signal;HPM_P1;HPM_P2
2021/12/18 00:00:12;;;;;;;2.58;2.00;;;;;;;10.71;54.63;99980.13;1764495;79;21046;-64
2021/12/18 00:02:41;;;;;;;2.67;1.62;;;;;;;10.71;54.58;99973.48;1773094;79;21061;-63
2021/12/18 00:05:09;;;;;;;2.35;1.90;;;;;;;10.70;54.54;99975.83;1750183;80;21518;-63
2021/12/18 00:07:35;;;;;;;2.12;1.92;;;;;;;10.70;54.52;99979.81;1762003;80;21586;-64
2021/12/18 00:10:04;;;;;;;1.80;1.50;;;;;;;10.70;54.47;99977.63;1766784;80;20991;-64
2021/12/18 00:12:32;;;;;;;2.00;1.80;;;;;;;10.69;54.45;99982.12;1762000;80;21050;-63
2021/12/18 00:14:58;;;;;;;2.15;1.70;;;;;;;10.70;54.40;99982.47;1757001;80;21018;-63
2021/12/18 00:17:24;;;;;;;2.15;1.85;;;;;;;10.69;54.38;99984.78;1764074;80;21081;-64
2021/12/18 00:19:51;;;;;;;2.20;1.65;;;;;;;10.69;54.36;99978.14;1769403;80;21078;-65
2021/12/18 00:22:17;;;;;;;2.17;1.85;;;;;;;10.70;54.32;99982.95;1749580;80;21061;-64
2021/12/18 00:24:44;;;;;;;1.65;1.40;;;;;;;10.68;54.32;99984.46;1758660;79;21096;-63
2021/12/18 00:27:10;;;;;;;1.70;1.57;;;;;;;10.68;54.30;99987.12;1712970;83;22096;-64
2021/12/18 00:29:37;;;;;;;1.60;1.50;;;;;;;10.70;54.26;99992.24;1705445;83;21090;-63
2021/12/18 00:32:05;;;;;;;2.15;1.60;;;;;;;10.69;54.24;99991.93;1762461;79;21038;-64
2021/12/18 00:34:32;;;;;;;1.60;1.50;;;;;;;10.67;54.19;99990.75;1756002;80;20987;-64
2021/12/18 00:36:58;;;;;;;1.57;1.42;;;;;;;10.68;54.19;99994.23;1766591;80;21105;-64
2021/12/18 00:39:27;;;;;;;2.12;1.80;;;;;;;10.69;54.15;99997.24;1763611;80;21062;-58
2021/12/18 00:42:07;;;;;;;2.15;1.52;;;;;;;10.67;54.13;99992.59;1751092;80;21022;-58
2021/12/18 00:44:28;;;;;;;2.60;2.08;;;;;;;10.67;54.13;99993.41;1761195;80;20987;-59
2021/12/18 00:46:56;;;;;;;1.57;1.40;;;;;;;10.66;54.11;99992.23;1773003;80;21034;-59
2021/12/18 00:49:24;;;;;;;1.55;1.45;;;;;;;10.66;54.09;99991.73;1747539;80;21148;-57
2021/12/18 00:51:51;;;;;;;1.80;1.57;;;;;;;10.65;54.07;100000.72;1768936;80;21014;-57
2021/12/18 00:54:17;;;;;;;1.67;1.37;;;;;;;10.65;54.07;100000.72;1744486;80;21534;-58
2021/12/18 00:56:43;;;;;;;2.17;1.75;;;;;;;10.65;54.04;100007.36;1767961;80;21030;-59
2021/12/18 00:59:10;;;;;;;2.12;1.90;;;;;;;10.65;54.04;100005.20;1746997;80;21089;-59
2021/12/18 01:01:37;;;;;;;2.10;1.57;;;;;;;10.65;54.01;100006.53;1746082;80;21142;-57
2021/12/18 01:04:04;;;;;;;2.02;1.55;;;;;;;10.65;54.00;100015.83;1756014;80;21483;-58
2021/12/18 01:06:32;;;;;;;1.92;1.70;;;;;;;10.64;53.98;100008.34;1753400;80;21149;-59
2021/12/18 01:08:58;;;;;;;1.90;1.70;;;;;;;10.64;53.95;100009.66;1748979;79;21109;-58
2021/12/18 01:11:32;;;;;;;1.90;1.50;;;;;;;10.63;53.96;100011.50;1759300;80;21038;-58
2021/12/18 01:25:02;;;;;;;1.90;1.70;;;;;;;10.59;53.90;100019.97;1768432;80;21002;-59
2021/12/18 01:27:29;;;;;;;2.27;1.95;;;;;;;10.58;53.90;100011.64;1749857;80;21139;-57
2021/12/18 01:29:55;;;;;;;1.60;1.50;;;;;;;10.57;53.91;100012.66;1755208;80;21228;-58
2021/12/18 01:32:23;;;;;;;1.87;1.60;;;;;;;10.57;53.88;100021.95;1748125;80;21034;-58
2021/12/18 01:34:49;;;;;;;1.82;1.40;;;;;;;10.56;53.87;100022.42;1754508;80;21088;-59
2021/12/18 01:37:15;;;;;;;2.70;1.52;;;;;;;10.56;53.87;100022.93;1755572;80;21024;-58
2021/12/18 01:39:42;;;;;;;1.92;1.50;;;;;;;10.56;53.85;100017.62;1755874;80;21199;-58
2021/12/18 01:52:39;;;;;;;1.82;1.60;;;;;;;10.56;53.81;100022.93;1734173;81;21913;-56
2021/12/18 01:55:07;;;;;;;1.82;1.62;;;;;;;10.54;53.77;100028.40;1734050;80;21085;-57
2021/12/18 01:57:33;;;;;;;2.60;1.72;;;;;;;10.54;53.78;100028.91;1744300;81;21035;-57
2021/12/18 02:00:00;;;;;;;1.75;1.22;;;;;;;10.53;53.75;100034.72;1756812;81;21183;-58
2021/12/18 02:02:26;;;;;;;1.47;1.37;;;;;;;10.54;53.76;100034.22;1743608;80;21065;-57
2021/12/18 02:04:53;;;;;;;1.80;1.50;;;;;;;10.53;53.76;100037.37;1756746;81;21902;-58
2021/12/18 02:07:20;;;;;;;1.52;1.30;;;;;;;10.54;53.73;100032.38;1748685;80;21056;-57
2021/12/18 02:10:03;;;;;;;1.42;1.30;;;;;;;10.53;53.71;100028.08;1767579;81;21475;-57
2021/12/18 02:12:39;;;;;;;1.75;1.40;;;;;;;10.54;53.68;100033.71;1736725;80;21066;-57
2021/12/18 02:23:01;;;;;;;1.42;1.30;;;;;;;10.52;53.64;100040.19;1749461;80;21050;-57
2021/12/18 02:25:30;;;;;;;2.15;1.40;;;;;;;10.51;53.63;100027.41;1757841;81;20996;-58
2021/12/18 02:27:56;;;;;;;1.52;1.30;;;;;;;10.51;53.62;100038.54;1766438;81;21054;-57
2021/12/18 02:30:23;;;;;;;2.22;1.37;;;;;;;10.51;53.62;100037.21;1751271;80;21205;-58
2021/12/18 02:32:49;;;;;;;1.62;1.52;;;;;;;10.51;53.58;100035.88;1756677;81;21116;-59
2021/12/18 02:35:28;;;;;;;2.42;1.37;;;;;;;10.51;53.59;100046.52;1767069;81;21050;-57
2021/12/18 02:38:20;;;;;;;2.45;1.60;;;;;;;10.50;53.57;100040.34;1753284;81;21521;-57
2021/12/18 02:43:16;;;;;;;1.35;1.20;;;;;;;10.49;53.52;100053.30;1745701;81;21849;-56
2021/12/18 02:45:43;;;;;;;1.70;1.60;;;;;;;10.48;53.53;100052.95;1741267;81;21037;-59
2021/12/18 02:48:09;;;;;;;1.42;1.25;;;;;;;10.48;53.52;100062.25;1766300;80;20994;-58
2021/12/18 02:50:39;;;;;;;2.00;1.35;;;;;;;10.49;53.54;100063.08;1765685;80;20986;-58
2021/12/18 02:53:06;;;;;;;2.05;1.65;;;;;;;10.48;53.51;100064.91;1762819;80;21468;-58
2021/12/18 02:55:34;;;;;;;1.50;1.40;;;;;;;10.48;53.47;100064.08;1754210;80;21144;-58
2021/12/18 02:58:00;;;;;;;1.92;1.47;;;;;;;10.48;53.46;100069.39;1776898;80;20999;-58
2021/12/18 03:00:28;;;;;;;1.37;1.27;;;;;;;10.47;53.46;100073.03;1773519;80;21081;-58
2021/12/18 03:02:55;;;;;;;1.45;1.05;;;;;;;10.48;53.44;100074.70;1751733;80;21616;-58
2021/12/18 03:05:29;;;;;;;1.42;1.20;;;;;;;10.48;53.43;100077.36;1751533;80;21049;-57
2021/12/18 03:07:57;;;;;;;1.42;1.30;;;;;;;10.47;53.42;100070.38;1751322;80;21361;-61
2021/12/18 03:24:28;;;;;;;1.50;1.40;;;;;;;10.42;53.38;100080.98;1775392;80;21007;-58
2021/12/18 03:26:49;;;;;;;1.92;1.30;;;;;;;10.42;53.35;100087.63;1758211;80;21054;-58
2021/12/18 03:29:15;;;;;;;1.17;1.07;;;;;;;10.42;53.35;100092.11;1752355;80;21009;-57
2021/12/18 03:31:43;;;;;;;1.37;1.27;;;;;;;10.41;53.35;100099.25;1765810;80;21050;-58
2021/12/18 03:34:11;;;;;;;1.20;1.10;;;;;;;10.40;53.35;100097.57;1761189;80;21494;-58
2021/12/18 03:36:38;;;;;;;1.40;1.30;;;;;;;10.41;53.35;100105.89;1755227;80;21054;-58
2021/12/18 03:39:05;;;;;;;1.70;1.17;;;;;;;10.42;53.33;100108.05;1754480;80;21514;-57
2021/12/18 03:41:32;;;;;;;1.30;1.20;;;;;;;10.41;53.29;100113.86;1755406;80;21014;-58
2021/12/18 03:43:58;;;;;;;1.27;1.17;;;;;;;10.41;53.28;100116.52;1778849;80;21066;-58
2021/12/18 03:46:25;;;;;;;1.30;1.20;;;;;;;10.41;53.27;100117.84;1756162;80;21296;-58
2021/12/18 03:48:51;;;;;;;1.45;1.05;;;;;;;10.41;53.26;100112.53;1737642;80;21058;-58
2021/12/18 03:51:18;;;;;;;1.27;1.10;;;;;;;10.41;53.25;100115.19;1744042;80;21475;-58
2021/12/18 03:53:44;;;;;;;1.22;1.12;;;;;;;10.41;53.22;100116.98;1759413;80;21003;-57
2021/12/18 03:56:11;;;;;;;1.45;1.00;;;;;;;10.41;53.20;100116.52;1767373;80;21593;-57
2021/12/18 03:58:37;;;;;;;1.67;1.35;;;;;;;10.41;53.19;100123.16;1765277;80;21152;-59
2021/12/18 04:01:04;;;;;;;1.22;1.00;;;;;;;10.41;53.18;100123.16;1757016;79;21030;-57
2021/12/18 04:03:30;;;;;;;1.07;0.98;;;;;;;10.42;53.17;100118.67;1773740;80;21081;-58
2021/12/18 04:05:57;;;;;;;1.32;1.22;;;;;;;10.41;53.15;100119.17;1756313;80;21030;-58
2021/12/18 04:08:23;;;;;;;1.20;1.10;;;;;;;10.41;53.14;100123.16;1733382;82;21614;-58
2021/12/18 04:10:50;;;;;;;1.40;1.30;;;;;;;10.41;53.12;100115.66;1702898;83;21166;-58
2021/12/18 04:13:16;;;;;;;1.45;1.20;;;;;;;10.40;53.12;100120.66;1747756;80;21006;-59
2021/12/18 04:15:42;;;;;;;1.22;1.12;;;;;;;10.41;53.11;100123.16;1761409;80;21306;-58
2021/12/18 04:18:09;;;;;;;1.30;1.10;;;;;;;10.40;53.08;100127.30;1757935;80;21038;-58
2021/12/18 04:20:35;;;;;;;1.25;1.15;;;;;;;10.40;53.08;100125.46;1742294;80;21054;-59
2021/12/18 04:23:01;;;;;;;1.15;1.05;;;;;;;10.41;53.06;100130.27;1759179;80;21107;-57
2021/12/18 04:25:28;;;;;;;1.35;1.25;;;;;;;10.41;53.05;100134.25;1754606;80;21070;-58
2021/12/18 04:27:54;;;;;;;1.20;1.10;;;;;;;10.40;53.02;100124.63;1709882;84;21042;-58
2021/12/18 04:30:21;;;;;;;1.30;1.20;;;;;;;10.40;53.01;100136.59;1775896;80;21034;-58
2021/12/18 04:32:47;;;;;;;1.12;1.02;;;;;;;10.39;53.00;100135.77;1764132;80;21070;-58
2021/12/18 04:35:14;;;;;;;1.77;1.20;;;;;;;10.39;53.00;100133.11;1761353;80;21142;-57
2021/12/18 04:37:40;;;;;;;0.85;0.85;;;;;;;10.39;52.99;100136.23;1743772;80;21006;-57
2021/12/18 04:40:08;;;;;;;1.72;1.30;;;;;;;10.39;52.97;100143.73;1740468;80;21284;-58
2021/12/18 04:42:34;;;;;;;1.20;1.07;;;;;;;10.39;52.93;100137.09;1751024;80;21039;-59
2021/12/18 04:45:01;;;;;;;1.40;1.30;;;;;;;10.38;52.93;100141.22;1743498;80;21496;-57
2021/12/18 04:47:27;;;;;;;1.30;1.20;;;;;;;10.37;52.91;100148.37;1722832;82;21135;-57
2021/12/18 04:49:55;;;;;;;1.37;1.27;;;;;;;10.39;52.90;100146.86;1754619;80;21113;-57
2021/12/18 04:52:23;;;;;;;0.90;0.90;;;;;;;10.38;52.90;100141.22;1759932;80;21041;-59
2021/12/18 04:54:51;;;;;;;1.62;1.22;;;;;;;10.38;52.88;100142.55;1761227;80;21027;-57
2021/12/18 04:57:17;;;;;;;1.77;1.20;;;;;;;10.38;52.86;100147.86;1782079;80;21044;-58
2021/12/18 05:01:45;;;;;;;1.70;1.50;;;;;;;10.41;52.83;100155.03;1784676;79;28150;-58
2021/12/18 05:04:14;;;;;;;1.20;1.10;;;;;;;10.35;52.86;100166.28;1729888;80;21014;-58
2021/12/18 05:06:44;;;;;;;1.47;1.10;;;;;;;10.35;52.85;100164.95;1744607;81;21128;-58
2021/12/18 05:09:09;;;;;;;1.30;1.20;;;;;;;10.35;52.82;100167.61;1741666;81;21038;-58
2021/12/18 05:11:35;;;;;;;1.45;1.30;;;;;;;10.35;52.83;100175.58;1742338;80;20958;-57
2021/12/18 05:14:02;;;;;;;1.30;1.20;;;;;;;10.34;52.80;100180.53;1707097;83;21027;-58
2021/12/18 05:16:29;;;;;;;1.30;1.20;;;;;;;10.35;52.80;100184.88;1699362;83;21031;-57
2021/12/18 05:18:55;;;;;;;2.02;1.45;;;;;;;10.32;52.83;100177.20;1684170;84;21160;-59
2021/12/18 05:21:22;;;;;;;1.40;1.30;;;;;;;10.33;52.78;100188.16;1678840;83;21488;-57
2021/12/18 05:23:48;;;;;;;1.25;1.15;;;;;;;10.33;52.78;100180.69;1682451;83;21025;-58
2021/12/18 05:26:16;;;;;;;1.42;1.15;;;;;;;10.33;52.77;100188.16;1701675;84;21594;-57
2021/12/18 05:28:43;;;;;;;1.62;1.30;;;;;;;10.34;52.76;100188.50;1689707;84;21604;-58
2021/12/18 05:31:10;;;;;;;1.70;1.60;;;;;;;10.33;52.74;100198.77;1702189;82;21124;-57
2021/12/18 05:33:36;;;;;;;1.32;1.20;;;;;;;10.33;52.75;100205.41;1705431;83;21081;-58
2021/12/18 05:36:23;;;;;;;1.37;1.27;;;;;;;10.34;52.76;100210.25;1707600;83;21061;-57
2021/12/18 05:38:32;;;;;;;1.27;1.15;;;;;;;10.33;52.73;100216.03;1709539;83;21516;-59
2021/12/18 05:40:58;;;;;;;1.20;1.10;;;;;;;10.33;52.73;100225.33;1711347;82;21097;-58
2021/12/18 05:43:25;;;;;;;1.47;1.37;;;;;;;10.33;52.74;100229.81;1707994;83;21537;-58
2021/12/18 05:45:52;;;;;;;1.50;1.40;;;;;;;10.33;52.71;100225.83;1685803;84;21019;-58
2021/12/18 05:48:18;;;;;;;1.77;1.55;;;;;;;10.32;52.71;100232.97;1709792;83;21597;-58
2021/12/18 05:50:46;;;;;;;1.55;1.20;;;;;;;10.33;52.70;100236.45;1717657;83;21054;-57
2021/12/18 05:53:14;;;;;;;1.20;1.10;;;;;;;10.31;52.70;100233.95;1715476;83;21216;-58
2021/12/18 05:55:40;;;;;;;1.45;1.25;;;;;;;10.31;52.71;100225.16;1702871;83;21143;-58
2021/12/18 05:58:08;;;;;;;1.40;1.10;;;;;;;10.32;52.68;100233.48;1692143;84;21142;-58
2021/12/18 06:00:38;;;;;;;1.42;1.32;;;;;;;10.32;52.68;100241.45;1696134;83;21108;-58
2021/12/18 06:03:03;;;;;;;1.30;1.20;;;;;;;10.30;52.69;100232.30;1699173;82;21026;-58
2021/12/18 06:05:30;;;;;;;1.25;1.15;;;;;;;10.31;52.68;100230.47;1700737;84;21006;-57
2021/12/18 06:07:57;;;;;;;1.17;1.07;;;;;;;10.30;52.68;100240.27;1698114;84;21159;-59
2021/12/18 06:10:29;;;;;;;1.50;1.40;;;;;;;10.30;52.68;100235.42;1683918;83;20994;-59
2021/12/18 06:13:02;;;;;;;2.10;1.90;;;;;;;10.30;52.67;100244.72;1727730;81;21007;-57
2021/12/18 06:15:28;;;;;;;1.10;1.10;;;;;;;10.30;52.67;100240.73;1687009;83;21655;-57
2021/12/18 06:17:59;;;;;;;1.30;1.20;;;;;;;10.28;52.66;100236.90;1714482;83;21128;-58
2021/12/18 06:20:24;;;;;;;1.37;1.27;;;;;;;10.28;52.64;100237.41;1710449;83;21147;-59
2021/12/18 06:22:51;;;;;;;1.10;0.95;;;;;;;10.28;52.62;100236.90;1734285;81;21129;-59
2021/12/18 06:25:17;;;;;;;1.30;1.20;;;;;;;10.29;52.64;100241.70;1751504;82;21034;-58
2021/12/18 06:27:43;;;;;;;1.20;1.10;;;;;;;10.28;52.62;100239.55;1704406;82;21108;-59
2021/12/18 06:30:11;;;;;;;1.30;1.20;;;;;;;10.28;52.63;100238.73;1692501;83;21112;-59
2021/12/18 06:32:39;;;;;;;1.50;1.20;;;;;;;10.28;52.63;100243.53;1702879;83;21162;-58
2021/12/18 06:35:07;;;;;;;1.35;1.10;;;;;;;10.29;52.64;100251.00;1708175;83;21540;-58
2021/12/18 06:37:36;;;;;;;1.55;1.35;;;;;;;10.28;52.61;100248.84;1708667;83;21014;-60
2021/12/18 06:40:05;;;;;;;1.20;1.10;;;;;;;10.14;52.59;100223.69;1687066;83;21541;-58
2021/12/18 06:42:31;;;;;;;1.57;1.47;;;;;;;10.27;52.57;100241.86;1738056;81;21005;-59
2021/12/18 06:44:58;;;;;;;1.30;1.20;;;;;;;10.27;52.57;100253.80;1725639;81;21202;-57
2021/12/18 06:47:24;;;;;;;1.37;1.27;;;;;;;10.27;52.57;100252.98;1730682;81;21104;-58
2021/12/18 06:49:50;;;;;;;1.40;1.30;;;;;;;10.26;52.57;100254.81;1722104;82;21042;-59
2021/12/18 06:52:17;;;;;;;1.85;1.30;;;;;;;10.27;52.56;100254.30;1724821;81;21093;-58
2021/12/18 06:54:44;;;;;;;1.30;1.20;;;;;;;10.27;52.57;100255.64;1744044;82;21002;-58
2021/12/18 06:57:10;;;;;;;1.52;1.42;;;;;;;10.27;52.55;100259.62;1735944;81;21565;-59
2021/12/18 06:59:37;;;;;;;1.70;1.45;;;;;;;10.26;52.52;100262.78;1724622;81;21030;-58
2021/12/18 07:02:03;;;;;;;1.57;1.47;;;;;;;10.27;52.53;100263.60;1683733;83;21053;-59
2021/12/18 07:04:30;;;;;;;1.72;1.35;;;;;;;10.27;52.50;100268.41;1728184;81;21066;-57
2021/12/18 07:06:56;;;;;;;1.40;1.22;;;;;;;10.27;52.51;100271.56;1729976;82;21062;-57
2021/12/18 07:09:23;;;;;;;2.17;1.57;;;;;;;10.27;52.46;100267.59;1756703;81;21184;-58
2021/12/18 07:11:49;;;;;;;1.35;1.25;;;;;;;10.26;52.46;100271.21;1734521;81;21011;-58
2021/12/18 07:14:16;;;;;;;1.50;1.40;;;;;;;10.27;52.47;100276.38;1716870;81;21535;-60
2021/12/18 07:16:42;;;;;;;1.30;1.20;;;;;;;10.26;52.45;100276.05;1713866;83;21011;-57
2021/12/18 07:19:08;;;;;;;2.17;1.40;;;;;;;10.27;52.44;100277.70;1714258;82;22028;-58
2021/12/18 07:21:35;;;;;;;1.40;1.22;;;;;;;10.27;52.44;100272.39;1740903;81;21137;-58
2021/12/18 07:24:04;;;;;;;1.90;1.40;;;;;;;10.26;52.43;100281.36;1730116;81;21071;-58
2021/12/18 07:26:32;;;;;;;1.40;1.30;;;;;;;10.27;52.44;100285.67;1740755;81;21058;-58
2021/12/18 07:29:00;;;;;;;1.42;1.22;;;;;;;10.26;52.43;100278.70;1741034;82;21060;-61
2021/12/18 07:31:27;;;;;;;1.87;1.47;;;;;;;10.26;52.44;100282.69;1734060;81;21029;-59
2021/12/18 07:33:54;;;;;;;1.70;1.60;;;;;;;10.27;52.43;100290.16;1733152;81;21136;-60
2021/12/18 07:36:20;;;;;;;1.60;1.50;;;;;;;10.26;52.44;100282.69;1738012;81;20991;-57
2021/12/18 07:38:47;;;;;;;1.57;1.40;;;;;;;10.28;52.42;100294.50;1713868;82;21023;-58
2021/12/18 07:41:13;;;;;;;2.15;1.57;;;;;;;10.26;52.43;100290.66;1719619;82;21053;-59
2021/12/18 07:43:40;;;;;;;1.50;1.40;;;;;;;10.27;52.42;100284.84;1717875;81;21014;-59
2021/12/18 07:46:06;;;;;;;1.37;1.27;;;;;;;10.28;52.41;100291.84;1740904;82;21209;-59
2021/12/18 07:48:33;;;;;;;1.30;1.20;;;;;;;10.28;52.41;100287.86;1743467;82;21070;-58
2021/12/18 07:50:59;;;;;;;1.80;1.60;;;;;;;10.28;52.41;100300.63;1735797;81;21030;-58
2021/12/18 07:53:26;;;;;;;1.65;1.10;;;;;;;10.28;52.37;100298.48;1720834;81;20991;-58
2021/12/18 07:55:52;;;;;;;1.65;1.47;;;;;;;10.27;52.37;100300.28;1732967;81;20998;-58
2021/12/18 07:58:18;;;;;;;1.40;1.30;;;;;;;10.29;52.36;100300.12;1721577;82;21809;-59
2021/12/18 08:00:45;;;;;;;1.35;1.25;;;;;;;10.28;52.36;100305.94;1739158;81;21084;-58
2021/12/18 08:03:12;;;;;;;1.50;1.40;;;;;;;10.29;52.38;100305.44;1744930;81;21063;-60
2021/12/18 08:05:39;;;;;;;1.62;1.52;;;;;;;10.29;52.34;100306.77;1757802;80;21044;-58
2021/12/18 08:08:05;;;;;;;2.47;1.60;;;;;;;10.29;52.34;100308.09;1761129;80;21077;-61
2021/12/18 08:10:32;;;;;;;1.90;1.47;;;;;;;10.29;52.34;100304.94;1751921;81;21131;-59
2021/12/18 08:12:58;;;;;;;1.77;1.47;;;;;;;10.29;52.34;100308.92;1717854;82;21056;-59
2021/12/18 08:15:25;;;;;;;1.50;1.40;;;;;;;10.29;52.33;100307.59;1709685;82;21533;-60
2021/12/18 08:17:51;;;;;;;1.70;1.60;;;;;;;10.30;52.32;100309.31;1718867;82;21049;-60
2021/12/18 08:20:18;;;;;;;1.90;1.45;;;;;;;10.31;52.32;100309.63;1718655;82;21100;-58
2021/12/18 08:22:44;;;;;;;1.70;1.17;;;;;;;10.30;52.31;100303.14;1704224;82;21141;-59
2021/12/18 08:25:10;;;;;;;1.60;1.35;;;;;;;10.31;52.34;100303.50;1719753;82;21037;-58
2021/12/18 08:27:38;;;;;;;1.65;1.42;;;;;;;10.32;52.34;100294.55;1720302;82;21092;-59
2021/12/18 08:30:06;;;;;;;1.57;1.32;;;;;;;10.32;52.34;100287.92;1692109;84;21509;-58
2021/12/18 08:32:33;;;;;;;1.52;1.42;;;;;;;10.33;52.61;100288.24;1704400;83;21052;-58
2021/12/18 08:35:00;;;;;;;1.60;1.40;;;;;;;10.32;52.68;100286.09;1709451;82;21163;-60
2021/12/18 08:37:27;;;;;;;1.90;1.60;;;;;;;10.34;52.68;100288.59;1732100;82;21041;-59
2021/12/18 08:39:53;;;;;;;2.02;1.37;;;;;;;10.34;52.69;100288.09;1717821;82;21584;-60
2021/12/18 08:42:20;;;;;;;1.80;1.60;;;;;;;10.35;52.67;100278.30;1722966;82;21003;-59
2021/12/18 08:44:47;;;;;;;1.50;1.40;;;;;;;10.36;52.64;100282.14;1695065;82;21056;-59
2021/12/18 08:47:16;;;;;;;1.62;1.42;;;;;;;10.37;52.63;100276.32;1695209;82;21525;-58
2021/12/18 08:49:42;;;;;;;1.60;1.50;;;;;;;10.38;52.61;100275.34;1692920;83;21072;-59
2021/12/18 08:52:08;;;;;;;1.62;1.52;;;;;;;10.38;52.58;100280.16;1697581;83;21085;-57
2021/12/18 08:54:35;;;;;;;2.02;1.50;;;;;;;10.39;52.56;100280.52;1720445;82;21081;-57
2021/12/18 08:57:02;;;;;;;2.00;1.70;;;;;;;10.39;52.53;100275.67;1724009;82;21564;-59
2021/12/18 08:59:29;;;;;;;1.98;1.47;;;;;;;10.41;52.49;100273.69;1725809;82;21139;-58
2021/12/18 09:01:55;;;;;;;1.82;1.42;;;;;;;10.40;52.47;100271.54;1706779;82;21552;-58
2021/12/18 09:04:22;;;;;;;1.75;1.57;;;;;;;10.42;52.46;100278.03;1690966;83;21045;-60
2021/12/18 09:06:48;;;;;;;1.35;1.25;;;;;;;10.43;52.44;100275.23;1689005;83;21216;-58
2021/12/18 09:09:15;;;;;;;1.52;1.40;;;;;;;10.45;52.42;100279.53;1686774;82;21116;-60
2021/12/18 09:11:42;;;;;;;1.40;1.30;;;;;;;10.46;52.37;100279.39;1690578;82;21863;-59
2021/12/18 09:14:08;;;;;;;2.33;1.40;;;;;;;10.47;52.37;100281.55;1687851;82;21269;-62
2021/12/18 09:16:35;;;;;;;1.87;1.67;;;;;;;10.47;52.34;100278.41;1697114;82;21525;-56
2021/12/18 09:19:01;;;;;;;1.85;1.72;;;;;;;10.49;52.31;100281.75;1734795;80;21113;-57
2021/12/18 09:21:28;;;;;;;2.27;1.77;;;;;;;10.48;52.29;100272.09;1728259;80;22092;-58
2021/12/18 09:23:55;;;;;;;2.22;2.00;;;;;;;10.49;52.28;100276.44;1690749;82;21163;-58
2021/12/18 09:26:21;;;;;;;1.70;1.50;;;;;;;10.51;52.25;100274.95;1737353;82;21037;-58
2021/12/18 09:28:47;;;;;;;2.00;1.80;;;;;;;10.50;52.24;100274.11;1737546;82;21566;-59
2021/12/18 09:31:14;;;;;;;1.90;1.75;;;;;;;10.51;52.22;100274.45;1693727;82;21100;-57
2021/12/18 09:33:40;;;;;;;1.92;1.80;;;;;;;10.52;52.19;100280.59;1730028;81;20978;-58
2021/12/18 09:36:07;;;;;;;1.60;1.40;;;;;;;10.53;52.18;100288.42;1735351;82;21067;-59
2021/12/18 09:38:33;;;;;;;1.85;1.57;;;;;;;10.53;52.14;100282.28;1704199;83;21037;-59
2021/12/18 09:41:01;;;;;;;1.87;1.67;;;;;;;10.53;52.15;100280.95;1710315;83;21081;-58
2021/12/18 09:43:29;;;;;;;1.60;1.50;;;;;;;10.53;52.14;100273.80;1728963;81;20997;-56
2021/12/18 09:46:08;;;;;;;1.80;1.65;;;;;;;10.54;52.13;100273.30;1731132;82;21082;-59
2021/12/18 09:48:37;;;;;;;1.90;1.65;;;;;;;10.53;52.21;100269.83;1735646;82;21143;-58
2021/12/18 09:51:09;;;;;;;1.90;1.72;;;;;;;10.53;52.25;100261.85;1713319;82;21076;-59
2021/12/18 09:53:35;;;;;;;2.12;1.80;;;;;;;10.53;52.30;100261.03;1697938;82;21098;-61
2021/12/18 09:56:03;;;;;;;1.87;1.60;;;;;;;10.53;52.32;100261.85;1702575;83;21015;-60
2021/12/18 09:58:30;;;;;;;2.00;1.80;;;;;;;10.53;52.31;100253.05;1719816;83;21502;-60
2021/12/18 10:00:57;;;;;;;2.42;1.98;;;;;;;10.53;52.31;100250.40;1692836;82;21148;-60
2021/12/18 10:03:55;;;;;;;2.35;1.87;;;;;;;10.52;52.32;100240.75;1732771;81;21588;-59
2021/12/18 10:06:41;;;;;;;2.33;1.65;;;;;;;10.53;52.28;100246.41;1711247;82;21069;-60
2021/12/18 10:09:20;;;;;;;2.37;1.45;;;;;;;10.54;52.28;100248.06;1692311;82;21088;-58
2021/12/18 10:11:54;;;;;;;2.67;1.75;;;;;;;10.52;52.26;100242.08;1723984;82;21080;-58
2021/12/18 10:14:38;;;;;;;2.60;1.70;;;;;;;10.52;52.26;100241.58;1693797;82;21401;-60
2021/12/18 10:17:31;;;;;;;2.12;1.90;;;;;;;10.53;52.27;100239.78;1698661;82;20998;-58
2021/12/18 10:20:18;;;;;;;2.37;1.70;;;;;;;10.53;52.25;100230.48;1700880;82;21108;-58
2021/12/18 10:22:50;;;;;;;2.33;1.72;;;;;;;10.53;52.23;100225.16;1716129;82;21069;-58
2021/12/18 10:25:25;;;;;;;3.65;1.95;;;;;;;10.52;52.23;100217.67;1686995;84;21523;-60
2021/12/18 10:28:04;;;;;;;2.42;2.08;;;;;;;10.53;52.23;100210.55;1689905;83;21212;-59
2021/12/18 10:30:28;;;;;;;1.70;1.60;;;;;;;10.53;52.22;100206.56;1691968;83;21483;-62
2021/12/18 10:33:07;;;;;;;1.77;1.60;;;;;;;10.54;52.19;100209.55;1694406;83;21191;-59
2021/12/18 10:35:51;;;;;;;1.85;1.47;;;;;;;10.54;52.16;100203.73;1703303;83;21050;-60
2021/12/18 10:38:51;;;;;;;2.40;1.70;;;;;;;10.56;52.15;100211.55;1703622;83;21125;-59
2021/12/18 10:41:32;;;;;;;1.95;1.75;;;;;;;10.56;52.15;100204.91;1693715;83;21220;-59
2021/12/18 10:44:11;;;;;;;1.70;1.60;;;;;;;10.55;52.15;100201.42;1690798;82;21621;-60
2021/12/18 10:46:41;;;;;;;1.90;1.60;;;;;;;10.56;52.12;100203.58;1713584;83;21018;-59
2021/12/18 10:49:12;;;;;;;1.87;1.52;;;;;;;10.57;52.13;100202.10;1688651;83;21058;-59
2021/12/18 10:51:41;;;;;;;1.90;1.57;;;;;;;10.59;52.11;100201.95;1683390;83;21014;-58
2021/12/18 10:54:16;;;;;;;1.65;1.55;;;;;;;10.59;52.11;100199.30;1681630;85;21170;-59
2021/12/18 10:56:46;;;;;;;2.33;2.08;;;;;;;10.60;52.08;100207.11;1681694;85;21511;-58
2021/12/18 10:59:36;;;;;;;2.40;1.85;;;;;;;10.61;52.08;100199.47;1682395;83;21035;-59
2021/12/18 11:02:05;;;;;;;1.98;1.50;;;;;;;10.62;52.06;100197.16;1683430;83;21109;-60
2021/12/18 11:04:38;;;;;;;2.83;2.08;;;;;;;10.63;52.05;100199.31;1670645;84;21606;-60
2021/12/18 11:07:28;;;;;;;2.00;1.80;;;;;;;10.62;52.04;100195.83;1672140;84;21120;-59
2021/12/18 11:10:13;;;;;;;2.10;1.80;;;;;;;10.65;52.01;100209.80;1672390;83;21075;-60
2021/12/18 11:14:58;;;;;;;2.00;1.62;;;;;;;10.65;52.01;100201.82;1640565;84;21098;-63
2021/12/18 11:17:24;;;;;;;19.12;2.87;;;;;;;10.65;51.99;100180.06;1691598;84;21066;-58
2021/12/18 11:19:51;;;;;;;13.38;3.25;;;;;;;10.71;53.46;100172.78;1682363;83;21234;-59
2021/12/18 11:22:17;;;;;;;11.95;4.83;;;;;;;10.83;54.59;100179.98;1695109;83;21098;-63
2021/12/18 11:25:06;;;;;;;8.00;3.60;;;;;;;11.01;60.33;100174.59;1673624;84;21082;-65
2021/12/18 11:27:34;;;;;;;12.65;4.45;;;;;;;11.43;65.58;100172.87;1682599;83;21110;-60
2021/12/18 11:30:09;;;;;;;10.43;4.22;;;;;;;12.05;67.23;100181.27;1694376;83;21086;-58
2021/12/18 11:32:41;;;;;;;9.28;3.33;;;;;;;12.47;65.33;100181.56;1687338;83;21488;-58
2021/12/18 11:35:12;;;;;;;9.43;3.30;;;;;;;12.69;63.03;100180.50;1680428;84;21127;-58
2021/12/18 11:37:43;;;;;;;11.15;3.25;;;;;;;12.75;61.05;100175.34;1725360;82;21050;-59
2021/12/18 11:40:11;;;;;;;7.03;3.75;;;;;;;12.77;59.92;100176.50;1736278;81;21038;-59
2021/12/18 11:42:39;;;;;;;7.85;3.30;;;;;;;12.75;59.43;100170.52;1732333;81;21645;-57
2021/12/18 11:45:06;;;;;;;6.67;2.90;;;;;;;12.69;59.12;100174.70;1742591;82;21175;-57
2021/12/18 11:47:37;;;;;;;9.43;4.55;;;;;;;12.63;58.88;100172.69;1715496;82;21058;-57
2021/12/18 11:50:28;;;;;;;10.95;3.35;;;;;;;12.56;58.70;100174.39;1691386;84;21117;-58
2021/12/18 11:53:08;;;;;;;8.68;2.98;;;;;;;12.48;58.48;100181.09;1721001;81;21085;-56
2021/12/18 11:55:51;;;;;;;7.00;3.00;;;;;;;12.39;58.25;100172.26;1720705;81;21069;-57
2021/12/18 11:58:27;;;;;;;6.78;3.10;;;;;;;12.31;58.04;100173.10;1686732;83;21159;-58
2021/12/18 12:01:02;;;;;;;6.80;3.15;;;;;;;12.22;57.82;100164.78;1701965;84;21081;-58
2021/12/18 12:03:40;;;;;;;4.15;2.70;;;;;;;12.14;57.64;100161.63;1704859;83;21026;-59
2021/12/18 12:06:41;;;;;;;5.15;3.17;;;;;;;12.10;57.48;100172.80;1706910;84;21002;-57
2021/12/18 12:09:25;;;;;;;3.25;2.35;;;;;;;12.04;57.31;100166.30;1696751;84;21074;-58
2021/12/18 12:11:57;;;;;;;4.65;2.60;;;;;;;11.97;57.12;100167.45;1679195;84;23282;-56
2021/12/18 12:14:26;;;;;;;6.45;2.70;;;;;;;11.93;56.94;100170.13;1680149;84;21006;-59
2021/12/18 12:17:12;;;;;;;7.12;2.65;;;;;;;11.90;56.78;100165.15;1680326;84;21089;-58
2021/12/18 12:19:42;;;;;;;7.12;2.75;;;;;;;11.85;56.60;100166.10;1714571;81;21050;-57
2021/12/18 12:22:14;;;;;;;6.30;2.83;;;;;;;11.82;56.41;100163.80;1713654;83;21511;-57
2021/12/18 12:24:56;;;;;;;4.50;2.67;;;;;;;11.79;56.26;100168.10;1676932;81;21361;-58